Time;durP1;ratioP1;P1;durP2;ratioP2;P2;SDS_P1;SDS_P2;PMS_P1;PMS_P2;Temp;Humidity;BMP_temperature;BMP_pressure;BME280_temperature;BME280_humidity;BME280_pressure;Samples;Min_cycle;Max_cycle;Signal;HPM_P1;HPM_P2
2022/11/21 00:00:16;;;;;;;13.23;4.60;;;;;;;5.87;100.00;100471.34;5062790;28;20056;-73
2022/11/21 00:02:41;;;;;;;12.48;4.32;;;;;;;5.85;100.00;100468.72;5045230;28;20028;-73
2022/11/21 00:05:07;;;;;;;8.85;4.47;;;;;;;5.84;100.00;100471.25;5052093;28;20020;-73
2022/11/21 00:07:32;;;;;;;9.60;4.38;;;;;;;5.83;100.00;100485.84;5034545;28;20031;-73
2022/11/21 00:09:57;;;;;;;11.60;4.97;;;;;;;5.83;100.00;100487.56;5056524;28;20028;-73
2022/11/21 00:12:23;;;;;;;13.98;4.65;;;;;;;5.82;100.00;100490.97;5046689;28;20036;-73
2022/11/21 00:14:48;;;;;;;12.98;5.22;;;;;;;5.82;100.00;100498.72;5055770;28;20028;-73
2022/11/21 00:17:13;;;;;;;11.00;4.75;;;;;;;5.82;100.00;100501.31;5055278;28;20025;-73
2022/11/21 00:19:39;;;;;;;11.32;4.63;;;;;;;5.80;100.00;100490.06;5060019;28;20044;-72
2022/11/21 00:22:04;;;;;;;10.30;5.20;;;;;;;5.80;100.00;100496.09;5052685;28;20201;-73
2022/11/21 00:24:29;;;;;;;11.48;5.07;;;;;;;5.80;100.00;100511.59;5056587;28;20036;-73
2022/11/21 00:26:55;;;;;;;13.80;5.30;;;;;;;5.78;100.00;100502.94;5040407;28;20028;-72
2022/11/21 00:29:20;;;;;;;20.35;5.80;;;;;;;5.77;100.00;100501.16;5050378;28;20259;-73
2022/11/21 00:31:45;;;;;;;14.52;5.32;;;;;;;5.77;100.00;100513.22;5062053;28;20025;-72
2022/11/21 00:34:11;;;;;;;14.35;5.18;;;;;;;5.78;100.00;100507.19;5062848;28;20024;-73
2022/11/21 00:36:36;;;;;;;16.15;5.18;;;;;;;5.78;100.00;100502.03;5055753;28;20058;-75
2022/11/21 00:39:01;;;;;;;16.77;5.13;;;;;;;5.76;100.00;100499.38;5057670;28;20171;-75
2022/11/21 00:41:26;;;;;;;16.00;4.68;;;;;;;5.73;100.00;100497.56;5063469;28;20019;-75
2022/11/21 00:43:52;;;;;;;11.82;4.22;;;;;;;5.71;100.00;100501.81;5059101;28;20323;-75
2022/11/21 00:46:17;;;;;;;14.90;5.43;;;;;;;5.66;100.00;100472.34;5054937;28;20013;-75
2022/11/21 00:48:42;;;;;;;15.18;4.47;;;;;;;5.65;100.00;100478.31;5057650;28;20088;-75
2022/11/21 00:51:07;;;;;;;10.18;4.30;;;;;;;5.66;100.00;100487.84;5034623;28;20013;-75
2022/11/21 00:53:33;;;;;;;12.23;4.40;;;;;;;5.67;100.00;100496.47;5059240;28;20016;-75
2022/11/21 00:55:58;;;;;;;12.15;4.70;;;;;;;5.65;100.00;100501.56;5060564;28;20021;-75
2022/11/21 00:58:24;;;;;;;11.35;4.55;;;;;;;5.65;100.00;100498.09;5064730;28;20025;-75
2022/11/21 01:00:49;;;;;;;13.60;4.30;;;;;;;5.63;100.00;100494.59;5059517;28;20025;-75
2022/11/21 01:03:15;;;;;;;13.15;4.78;;;;;;;5.61;100.00;100494.53;5057345;28;20025;-75
2022/11/21 01:05:40;;;;;;;12.10;4.47;;;;;;;5.57;100.00;100498.69;5054458;28;20020;-75
2022/11/21 01:08:05;;;;;;;11.80;3.95;;;;;;;5.53;100.00;100494.25;5058246;28;20020;-75
2022/11/21 01:10:31;;;;;;;11.88;4.57;;;;;;;5.50;100.00;100493.22;5060241;28;20010;-75
2022/11/21 01:12:56;;;;;;;10.23;4.03;;;;;;;5.47;100.00;100490.53;5036710;28;20017;-75
2022/11/21 01:15:21;;;;;;;11.73;4.32;;;;;;;5.45;100.00;100494.78;5049486;28;20029;-75
2022/11/21 01:17:46;;;;;;;15.00;4.63;;;;;;;5.41;100.00;100493.75;5055241;28;20239;-75
2022/11/21 01:20:13;;;;;;;14.68;4.43;;;;;;;5.40;100.00;100495.47;5056609;28;20089;-75
2022/11/21 01:22:38;;;;;;;11.02;4.60;;;;;;;5.39;100.00;100501.44;5051977;28;20260;-75
2022/11/21 01:25:04;;;;;;;12.88;4.15;;;;;;;5.35;100.00;100502.16;5064960;28;20027;-75
2022/11/21 01:27:29;;;;;;;10.35;4.50;;;;;;;5.34;100.00;100500.38;5052441;28;20025;-75
2022/11/21 01:29:55;;;;;;;15.27;4.13;;;;;;;5.35;100.00;100512.47;5055217;28;20045;-75
2022/11/21 01:32:20;;;;;;;10.63;4.32;;;;;;;5.35;100.00;100503.88;5048697;28;20267;-75
2022/11/21 01:34:45;;;;;;;12.88;4.55;;;;;;;5.36;100.00;100508.22;5061341;28;20036;-75
2022/11/21 01:37:10;;;;;;;11.98;4.38;;;;;;;5.35;100.00;100507.31;5063592;28;20020;-75
2022/11/21 01:39:36;;;;;;;14.60;5.22;;;;;;;5.34;100.00;100502.09;5063630;28;20029;-75
2022/11/21 01:42:01;;;;;;;16.70;8.63;;;;;;;5.31;100.00;100495.09;5060977;28;20055;-75
2022/11/21 01:44:46;;;;;;;26.60;12.02;;;;;;;5.32;100.00;100502.03;5057707;28;20033;-75
2022/11/21 01:47:12;;;;;;;28.67;13.70;;;;;;;5.29;100.00;100496.75;5057959;28;20041;-75
2022/11/21 01:49:39;;;;;;;25.00;14.18;;;;;;;5.26;100.00;100491.47;5036136;28;20025;-75
2022/11/21 01:52:18;;;;;;;29.73;15.85;;;;;;;5.20;100.00;100489.53;5053656;28;20046;-75
2022/11/21 01:54:50;;;;;;;28.83;14.82;;;;;;;5.18;100.00;100488.56;5060658;28;20052;-75
2022/11/21 01:57:24;;;;;;;31.92;16.33;;;;;;;5.17;100.00;100480.75;5061047;28;20043;-75
2022/11/21 01:59:54;;;;;;;31.52;15.55;;;;;;;5.16;100.00;100486.75;5064187;28;20248;-75
2022/11/21 02:02:23;;;;;;;29.33;15.35;;;;;;;5.14;100.00;100490.97;5036055;28;20310;-75
2022/11/21 02:04:50;;;;;;;29.88;16.60;;;;;;;5.09;100.00;100493.38;5043879;28;20027;-75
2022/11/21 02:07:18;;;;;;;26.98;15.30;;;;;;;5.05;100.00;100502.72;5051963;28;20261;-75
2022/11/21 02:09:48;;;;;;;28.02;14.90;;;;;;;5.01;100.00;100505.09;5063381;28;20025;-75
2022/11/21 02:12:22;;;;;;;31.42;15.52;;;;;;;4.94;100.00;100511.72;5063030;28;20049;-75
2022/11/21 02:14:47;;;;;;;30.65;15.27;;;;;;;4.85;100.00;100513.91;5057233;28;20037;-75
2022/11/21 02:17:13;;;;;;;28.65;14.85;;;;;;;4.76;100.00;100513.53;5053663;28;20021;-75
2022/11/21 02:20:00;;;;;;;27.73;15.45;;;;;;;4.72;100.00;100507.34;5058996;28;20028;-75
2022/11/21 02:22:39;;;;;;;30.08;15.98;;;;;;;4.69;100.00;100512.38;5057968;28;20024;-75
2022/11/21 02:25:07;;;;;;;30.75;16.50;;;;;;;4.65;100.00;100516.56;5058115;28;20183;-75
2022/11/21 02:27:33;;;;;;;29.75;16.40;;;;;;;4.59;100.00;100521.47;5055012;28;20020;-75
2022/11/21 02:30:00;;;;;;;31.23;16.73;;;;;;;4.55;100.00;100523.81;5056690;28;20187;-75
2022/11/21 02:32:35;;;;;;;32.30;16.58;;;;;;;4.54;100.00;100515.22;5060340;28;20013;-75
2022/11/21 02:35:00;;;;;;;31.58;17.27;;;;;;;4.55;100.00;100516.06;5063463;28;20234;-75
2022/11/21 02:37:26;;;;;;;31.10;16.30;;;;;;;4.55;100.00;100509.25;5061229;28;20036;-75
2022/11/21 02:39:52;;;;;;;34.55;17.52;;;;;;;4.54;100.00;100512.63;5052159;28;20033;-75
2022/11/21 02:42:27;;;;;;;31.55;17.40;;;;;;;4.53;100.00;100509.19;5055991;28;20263;-75
2022/11/21 02:45:17;;;;;;;32.42;15.73;;;;;;;4.57;100.00;100511.88;5051785;28;20021;-75
2022/11/21 02:47:44;;;;;;;30.98;16.48;;;;;;;4.55;100.00;100522.13;5052184;28;20032;-73
2022/11/21 02:50:17;;;;;;;32.70;16.80;;;;;;;4.56;100.00;100529.03;5064142;28;20088;-72
2022/11/21 02:52:43;;;;;;;32.00;16.98;;;;;;;4.56;100.00;100531.63;5051130;28;20276;-73
2022/11/21 02:55:10;;;;;;;34.80;17.65;;;;;;;4.57;100.00;100529.94;5049242;28;20129;-73
2022/11/21 02:57:35;;;;;;;32.13;17.45;;;;;;;4.56;100.00;100529.03;5059564;28;20047;-73
2022/11/21 03:00:00;;;;;;;32.67;16.88;;;;;;;4.58;100.00;100536.88;5063589;28;20225;-72
2022/11/21 03:02:26;;;;;;;35.08;17.52;;;;;;;4.54;100.00;100525.53;5051857;28;20096;-72
2022/11/21 03:04:51;;;;;;;36.33;17.38;;;;;;;4.53;100.00;100523.75;5049652;28;20094;-73
2022/11/21 03:07:16;;;;;;;38.30;18.20;;;;;;;4.52;100.00;100524.59;5050042;28;20013;-72
2022/11/21 03:09:42;;;;;;;34.05;18.27;;;;;;;4.50;100.00;100515.88;5057849;28;20175;-72
2022/11/21 03:12:08;;;;;;;37.28;18.55;;;;;;;4.48;100.00;100512.38;5060415;28;20020;-72
2022/11/21 03:14:35;;;;;;;34.60;18.30;;;;;;;4.48;100.00;100513.25;5031299;28;20147;-72
2022/11/21 03:17:00;;;;;;;37.63;18.00;;;;;;;4.48;100.00;100510.66;5061254;28;20080;-75
2022/11/21 03:19:25;;;;;;;35.33;17.52;;;;;;;4.47;100.00;100508.03;5058390;28;20066;-75
2022/11/21 03:21:51;;;;;;;34.08;17.73;;;;;;;4.48;100.00;100502.06;5050526;28;20168;-75
2022/11/21 03:24:16;;;;;;;29.45;16.02;;;;;;;4.45;100.00;100502.81;5052585;28;20028;-75
2022/11/21 03:26:41;;;;;;;36.42;18.45;;;;;;;4.47;100.00;100510.59;5059753;28;20024;-75
2022/11/21 03:29:06;;;;;;;30.95;16.75;;;;;;;4.47;100.00;100502.88;5049200;28;20017;-75
2022/11/21 03:31:32;;;;;;;36.13;17.58;;;;;;;4.44;100.00;100497.56;5063250;28;20044;-75
2022/11/21 03:33:57;;;;;;;33.55;17.52;;;;;;;4.42;100.00;100501.78;5051109;28;20025;-74
2022/11/21 03:36:22;;;;;;;33.10;17.13;;;;;;;4.40;100.00;100495.69;5058029;28;20024;-75
2022/11/21 03:38:48;;;;;;;35.20;17.30;;;;;;;4.39;100.00;100504.22;5053775;28;20017;-75
2022/11/21 03:41:28;;;;;;;33.10;16.75;;;;;;;4.39;100.00;100501.66;5042374;28;20127;-74
2022/11/21 03:44:05;;;;;;;31.25;17.23;;;;;;;4.37;100.00;100498.13;5038467;28;20043;-75
2022/11/21 03:46:33;;;;;;;36.97;17.60;;;;;;;4.30;100.00;100491.81;5052487;28;20323;-75
2022/11/21 03:48:59;;;;;;;38.38;17.23;;;;;;;4.21;100.00;100494.88;5052697;28;20053;-74
2022/11/21 03:51:25;;;;;;;70.63;19.30;;;;;;;4.17;100.00;100496.47;5050960;28;20029;-75
2022/11/21 03:53:50;;;;;;;49.65;18.85;;;;;;;4.12;100.00;100502.22;5052074;28;20036;-75
2022/11/21 03:56:16;;;;;;;49.13;17.13;;;;;;;4.08;100.00;100505.47;5053913;28;20020;-75
2022/11/21 03:58:42;;;;;;;54.25;17.20;;;;;;;4.04;100.00;100507.06;5056729;28;20019;-75
2022/11/21 04:01:07;;;;;;;53.80;17.33;;;;;;;4.03;100.00;100510.44;5053763;28;20028;-74
2022/11/21 04:03:33;;;;;;;48.67;17.60;;;;;;;3.99;100.00;100511.97;5052808;28;20024;-75
2022/11/21 04:05:58;;;;;;;66.60;18.20;;;;;;;3.97;100.00;100512.75;5061469;28;20037;-75
2022/11/21 04:08:23;;;;;;;36.17;17.60;;;;;;;3.98;100.00;100523.13;5057600;28;20013;-76
2022/11/21 04:10:51;;;;;;;46.53;17.38;;;;;;;3.99;100.00;100527.44;5059047;28;20029;-75
2022/11/21 04:13:16;;;;;;;40.67;17.05;;;;;;;4.03;100.00;100517.25;5044000;28;20016;-75
2022/11/21 04:15:43;;;;;;;56.53;17.25;;;;;;;4.02;100.00;100511.25;5045687;28;20023;-75
2022/11/21 04:18:08;;;;;;;36.20;18.13;;;;;;;4.03;100.00;100506.94;5048112;28;20017;-75
2022/11/21 04:20:34;;;;;;;78.22;18.15;;;;;;;4.04;100.00;100508.72;5057929;28;20024;-75
2022/11/21 04:23:00;;;;;;;66.88;18.17;;;;;;;4.03;100.00;100509.53;5031524;28;20017;-75
2022/11/21 04:25:25;;;;;;;36.25;16.77;;;;;;;4.02;100.00;100506.09;5058232;28;20377;-75
2022/11/21 04:27:50;;;;;;;33.58;16.25;;;;;;;4.04;100.00;100503.56;5052174;28;20033;-74
2022/11/21 04:30:15;;;;;;;33.80;16.92;;;;;;;4.06;100.00;100504.53;5050364;28;20094;-75
2022/11/21 04:32:41;;;;;;;46.55;16.65;;;;;;;4.08;100.00;100497.75;5050603;28;20171;-75
2022/11/21 04:35:06;;;;;;;37.72;15.73;;;;;;;4.07;100.00;100486.56;5054301;28;20048;-76
2022/11/21 04:37:32;;;;;;;41.47;15.85;;;;;;;4.05;100.00;100487.28;5059178;28;20180;-76
2022/11/21 04:39:57;;;;;;;39.38;16.75;;;;;;;4.04;100.00;100480.38;5050514;28;20101;-75
2022/11/21 04:42:23;;;;;;;53.85;17.95;;;;;;;4.00;100.00;100472.50;5050119;28;20017;-74
2022/11/21 04:44:48;;;;;;;50.30;17.17;;;;;;;3.99;100.00;100475.88;5054280;28;20163;-75
2022/11/21 04:47:13;;;;;;;53.47;17.20;;;;;;;4.01;100.00;100463.06;5030293;28;20082;-75
2022/11/21 04:49:38;;;;;;;43.17;16.40;;;;;;;3.99;100.00;100465.56;5031587;28;20275;-75
2022/11/21 04:52:04;;;;;;;31.23;16.10;;;;;;;4.02;100.00;100466.53;5042429;28;20032;-75
2022/11/21 04:54:29;;;;;;;32.90;15.00;;;;;;;4.02;100.00;100467.41;5059908;28;20163;-75
2022/11/21 04:56:54;;;;;;;31.85;17.13;;;;;;;4.01;100.00;100468.22;5055423;28;20029;-75
2022/11/21 04:59:20;;;;;;;38.28;16.38;;;;;;;4.04;100.00;100467.47;5058232;28;20028;-75
2022/11/21 05:01:45;;;;;;;37.13;15.27;;;;;;;4.03;100.00;100465.72;5055895;28;20021;-75
2022/11/21 05:04:10;;;;;;;29.45;14.90;;;;;;;4.00;100.00;100458.75;5053065;28;20021;-75
2022/11/21 05:06:36;;;;;;;33.70;15.60;;;;;;;3.94;100.00;100451.63;5056786;28;20510;-75
2022/11/21 05:09:01;;;;;;;27.23;14.63;;;;;;;3.94;100.00;100456.78;5060967;28;20092;-75
2022/11/21 05:14:10;;;;;;;36.88;16.20;;;;;;;3.95;100.00;100465.38;5064089;28;20098;-75
2022/11/21 05:16:35;;;;;;;31.40;15.65;;;;;;;3.94;100.00;100454.19;5064307;28;20290;-75
2022/11/21 05:19:01;;;;;;;30.33;15.27;;;;;;;3.95;100.00;100449.91;5039663;28;20032;-75
2022/11/21 05:21:26;;;;;;;38.75;14.70;;;;;;;3.93;100.00;100449.84;5060951;28;20033;-75
2022/11/21 05:23:51;;;;;;;34.38;14.77;;;;;;;3.91;100.00;100443.75;5032481;28;20017;-75
2022/11/21 05:26:16;;;;;;;32.63;15.25;;;;;;;3.89;100.00;100437.63;5059109;28;20235;-75
2022/11/21 05:28:42;;;;;;;90.82;16.90;;;;;;;3.85;100.00;100430.56;5060671;28;20020;-75
2022/11/21 05:31:07;;;;;;;75.63;16.92;;;;;;;3.82;100.00;100433.03;5054512;28;20072;-75
2022/11/21 05:33:32;;;;;;;33.47;15.38;;;;;;;3.81;100.00;100432.16;5031939;28;20040;-75
2022/11/21 05:35:57;;;;;;;59.92;15.40;;;;;;;3.78;100.00;100434.59;5051671;28;20018;-75
2022/11/21 05:38:23;;;;;;;68.22;16.38;;;;;;;3.75;100.00;100433.56;5055973;28;20021;-75
2022/11/21 05:40:51;;;;;;;31.65;14.18;;;;;;;3.75;100.00;100425.84;5059896;28;20256;-75
2022/11/21 05:46:00;;;;;;;32.90;14.25;;;;;;;3.74;100.00;100434.41;5058624;28;20060;-75
2022/11/21 05:48:25;;;;;;;37.33;14.38;;;;;;;3.76;100.00;100436.22;5057686;28;20203;-75
2022/11/21 05:50:51;;;;;;;86.28;16.73;;;;;;;3.77;100.00;100432.84;5064369;28;20035;-75
2022/11/21 05:53:17;;;;;;;48.88;15.55;;;;;;;3.79;100.00;100425.16;5050871;28;20024;-75
2022/11/21 05:55:42;;;;;;;36.38;15.35;;;;;;;3.81;100.00;100428.72;5055698;28;20025;-75
2022/11/21 05:58:09;;;;;;;40.08;15.20;;;;;;;3.82;100.00;100425.28;5056305;28;20118;-75
2022/11/21 06:00:35;;;;;;;62.72;15.15;;;;;;;3.83;100.00;100414.19;5028947;28;20318;-74
2022/11/21 06:05:44;;;;;;;68.38;15.15;;;;;;;3.76;100.00;100402.72;5054082;28;20090;-74
2022/11/21 06:08:09;;;;;;;51.10;15.90;;;;;;;3.75;100.00;100402.66;5054810;28;20024;-75
2022/11/21 06:10:34;;;;;;;47.85;15.25;;;;;;;3.75;100.00;100406.13;5049601;28;20290;-75
2022/11/21 06:13:00;;;;;;;46.22;15.68;;;;;;;3.75;100.00;100413.84;5062926;28;20028;-74
2022/11/21 06:15:26;;;;;;;36.13;13.95;;;;;;;3.72;100.00;100406.00;5058050;28;20051;-75
2022/11/21 06:17:51;;;;;;;36.97;15.10;;;;;;;3.73;100.00;100414.59;5053236;28;20287;-75
2022/11/21 06:20:16;;;;;;;25.95;14.10;;;;;;;3.74;100.00;100411.22;5057420;28;20021;-75
2022/11/21 06:22:42;;;;;;;25.95;13.73;;;;;;;3.76;100.00;100404.41;5052929;28;20088;-75
2022/11/21 06:25:07;;;;;;;24.33;12.85;;;;;;;3.80;100.00;100401.16;5052719;28;20041;-75
2022/11/21 06:27:33;;;;;;;25.88;13.13;;;;;;;3.85;100.00;100406.50;5054935;28;20260;-74
2022/11/21 06:29:58;;;;;;;27.10;14.10;;;;;;;3.90;100.00;100393.00;5049403;28;20021;-74
2022/11/21 06:32:23;;;;;;;27.23;13.60;;;;;;;3.96;100.00;100387.25;5050603;28;20092;-75
2022/11/21 06:34:48;;;;;;;26.10;13.10;;;;;;;3.99;100.00;100392.53;5061114;28;20275;-74
2022/11/21 06:37:14;;;;;;;24.00;12.32;;;;;;;4.01;100.00;100388.31;5046144;28;20032;-74
2022/11/21 06:39:39;;;;;;;26.25;12.63;;;;;;;4.04;100.00;100385.88;5054592;28;20079;-74
2022/11/21 06:42:04;;;;;;;25.05;12.38;;;;;;;4.07;100.00;100379.94;5055061;28;20013;-73
2022/11/21 06:44:30;;;;;;;27.05;13.93;;;;;;;4.10;100.00;100383.56;5056381;28;20020;-75
2022/11/21 06:46:55;;;;;;;25.48;12.75;;;;;;;4.12;100.00;100381.91;5060716;28;20354;-75
2022/11/21 06:49:21;;;;;;;24.02;12.35;;;;;;;4.16;100.00;100382.94;5058758;28;20282;-75
2022/11/21 06:51:46;;;;;;;26.35;13.38;;;;;;;4.17;100.00;100383.00;5057143;28;20051;-75
2022/11/21 06:54:11;;;;;;;24.25;12.48;;;;;;;4.18;100.00;100394.19;5060383;28;20123;-75
2022/11/21 06:56:37;;;;;;;24.88;12.63;;;;;;;4.20;100.00;100387.41;5063555;28;20049;-75
2022/11/21 06:59:02;;;;;;;26.88;13.35;;;;;;;4.23;100.00;100379.81;5060917;28;20025;-75
2022/11/21 07:01:27;;;;;;;26.08;13.00;;;;;;;4.25;100.00;100372.13;5057893;28;20028;-75
2022/11/21 07:03:53;;;;;;;29.95;13.48;;;;;;;4.27;100.00;100373.97;5055134;28;20036;-75
2022/11/21 07:06:19;;;;;;;25.80;12.98;;;;;;;4.30;100.00;100379.25;5058825;28;20070;-75
2022/11/21 07:08:44;;;;;;;27.00;12.68;;;;;;;4.33;100.00;100379.34;5054756;28;20263;-75
2022/11/21 07:11:11;;;;;;;25.77;12.30;;;;;;;4.38;100.00;100381.25;5055113;28;20020;-75
2022/11/21 07:13:37;;;;;;;26.52;12.38;;;;;;;4.40;100.00;100371.88;5062161;28;20136;-75
2022/11/21 07:16:07;;;;;;;25.55;12.90;;;;;;;4.42;100.00;100375.38;5055377;28;20330;-75
2022/11/21 07:18:34;;;;;;;24.95;12.18;;;;;;;4.44;100.00;100366.88;5054895;28;20100;-72
2022/11/21 07:21:01;;;;;;;26.77;13.25;;;;;;;4.46;100.00;100361.78;5036125;28;20040;-72
2022/11/21 07:23:27;;;;;;;30.08;13.05;;;;;;;4.46;100.00;100354.94;5053798;28;20024;-72
2022/11/21 07:25:53;;;;;;;24.33;12.05;;;;;;;4.48;100.00;100360.16;5054793;28;20067;-72
2022/11/21 07:28:18;;;;;;;26.42;12.85;;;;;;;4.50;100.00;100367.16;5055896;28;20032;-72
2022/11/21 07:30:43;;;;;;;25.50;12.55;;;;;;;4.51;100.00;100368.91;5061811;28;20172;-73
2022/11/21 07:33:08;;;;;;;28.98;12.85;;;;;;;4.53;100.00;100366.38;5063030;28;20025;-72
2022/11/21 07:35:35;;;;;;;24.38;12.07;;;;;;;4.53;100.00;100361.22;5040313;28;20017;-72
2022/11/21 07:38:01;;;;;;;22.92;12.35;;;;;;;4.54;100.00;100368.16;5060600;28;20048;-72
2022/11/21 07:40:26;;;;;;;22.02;11.35;;;;;;;4.54;100.00;100360.41;5060595;28;20074;-72
2022/11/21 07:42:51;;;;;;;26.02;12.40;;;;;;;4.56;100.00;100371.66;5046987;28;20304;-72
2022/11/21 07:45:17;;;;;;;23.73;11.95;;;;;;;4.58;100.00;100370.03;5050457;28;20219;-72
2022/11/21 07:47:42;;;;;;;23.17;11.50;;;;;;;4.60;100.00;100367.50;5050840;28;20029;-72
2022/11/21 07:50:10;;;;;;;22.52;10.77;;;;;;;4.61;100.00;100367.56;5048225;28;20040;-72
2022/11/21 07:52:36;;;;;;;20.27;10.52;;;;;;;4.62;100.00;100364.19;5055880;28;20032;-72
2022/11/21 07:55:02;;;;;;;22.45;10.75;;;;;;;4.63;100.00;100363.34;5041329;28;20269;-72
2022/11/21 07:57:28;;;;;;;21.50;10.27;;;;;;;4.63;100.00;100368.50;5036543;28;20222;-72
2022/11/21 07:59:53;;;;;;;18.85;9.93;;;;;;;4.65;100.00;100355.66;5054623;28;20264;-72
2022/11/21 08:02:24;;;;;;;22.30;10.45;;;;;;;4.66;100.00;100348.00;5060169;28;20053;-72
2022/11/21 08:04:50;;;;;;;21.30;10.30;;;;;;;4.68;100.00;100348.94;5061138;28;20052;-72
2022/11/21 08:07:17;;;;;;;19.05;9.13;;;;;;;4.69;100.00;100347.22;5055753;28;20029;-72
2022/11/21 08:09:42;;;;;;;22.58;9.40;;;;;;;4.70;100.00;100346.41;5057199;28;20039;-72
2022/11/21 08:12:09;;;;;;;20.23;9.27;;;;;;;4.70;100.00;100341.25;5060900;28;20020;-72
2022/11/21 08:14:35;;;;;;;19.13;8.95;;;;;;;4.70;100.00;100339.53;5054091;28;20044;-72
2022/11/21 08:17:00;;;;;;;17.42;8.48;;;;;;;4.70;100.00;100336.97;5061054;28;20279;-74
2022/11/21 08:19:25;;;;;;;17.10;8.18;;;;;;;4.73;100.00;100340.50;5052959;28;20009;-74
2022/11/21 08:21:51;;;;;;;15.65;8.38;;;;;;;4.72;100.00;100346.47;5057201;28;20100;-74
2022/11/21 08:24:16;;;;;;;16.42;8.13;;;;;;;4.72;100.00;100336.16;5048301;28;20040;-74
2022/11/21 08:26:42;;;;;;;16.67;8.10;;;;;;;4.73;100.00;100332.75;5058309;28;20021;-74
2022/11/21 08:29:09;;;;;;;20.63;7.47;;;;;;;4.74;100.00;100324.19;5062510;28;20017;-74
2022/11/21 08:31:35;;;;;;;15.35;8.15;;;;;;;4.76;100.00;100322.53;5055521;28;20027;-74
2022/11/21 08:34:01;;;;;;;15.77;7.68;;;;;;;4.77;100.00;100314.84;5050490;28;20049;-74
2022/11/21 08:36:26;;;;;;;15.85;7.47;;;;;;;4.80;100.00;100314.09;5045939;28;20088;-75
2022/11/21 08:38:51;;;;;;;18.92;7.88;;;;;;;4.80;100.00;100304.66;5046588;28;20175;-74
2022/11/21 08:44:01;;;;;;;13.68;6.65;;;;;;;4.86;100.00;100298.84;5055282;28;20048;-75
2022/11/21 08:46:27;;;;;;;19.42;7.05;;;;;;;4.87;100.00;100291.16;5052067;28;20025;-73
2022/11/21 08:48:55;;;;;;;15.77;6.35;;;;;;;4.90;100.00;100292.97;5055688;28;20017;-73
2022/11/21 08:51:21;;;;;;;17.73;6.75;;;;;;;4.91;100.00;100293.84;5052471;28;20029;-73
2022/11/21 08:53:46;;;;;;;14.45;6.20;;;;;;;4.94;100.00;100300.03;5050909;28;20036;-72
2022/11/21 08:56:12;;;;;;;14.52;6.55;;;;;;;4.95;100.00;100299.16;5052074;28;20052;-72
2022/11/21 08:58:38;;;;;;;15.00;6.60;;;;;;;4.96;100.00;100295.78;5050384;28;20294;-73
2022/11/21 09:01:03;;;;;;;16.92;6.30;;;;;;;5.00;100.00;100296.78;5043613;28;20100;-73
2022/11/21 09:03:28;;;;;;;13.20;6.10;;;;;;;5.01;100.00;100283.94;5048079;28;20055;-73
2022/11/21 09:05:58;;;;;;;12.93;6.22;;;;;;;5.03;100.00;100295.19;5056626;28;20055;-73
2022/11/21 09:08:23;;;;;;;15.65;6.85;;;;;;;5.05;100.00;100280.66;5045602;28;20048;-73
2022/11/21 09:10:48;;;;;;;12.40;6.15;;;;;;;5.08;100.00;100279.00;5051553;28;20247;-73
2022/11/21 09:13:14;;;;;;;12.77;5.85;;;;;;;5.12;100.00;100275.69;5055564;28;20063;-73
2022/11/21 09:18:23;;;;;;;14.32;6.05;;;;;;;5.17;100.00;100275.03;5059773;28;20184;-75
2022/11/21 09:20:48;;;;;;;11.90;5.75;;;;;;;5.20;100.00;100274.28;5053237;28;20024;-75
2022/11/21 09:23:15;;;;;;;11.82;5.78;;;;;;;5.23;100.00;100275.25;5049394;28;20017;-75
2022/11/21 09:25:41;;;;;;;14.07;5.75;;;;;;;5.27;100.00;100267.63;5063009;28;20264;-75
2022/11/21 09:28:08;;;;;;;16.98;6.13;;;;;;;5.30;100.00;100266.03;5060991;28;20097;-75
2022/11/21 09:30:34;;;;;;;11.88;5.53;;;;;;;5.33;100.00;100270.41;5064102;28;20044;-75
2022/11/21 09:33:03;;;;;;;14.30;5.85;;;;;;;5.37;100.00;100267.09;5063764;28;20013;-75
2022/11/21 09:35:29;;;;;;;13.07;5.53;;;;;;;5.39;100.00;100261.19;5054075;28;20024;-75
2022/11/21 09:37:54;;;;;;;14.45;5.90;;;;;;;5.43;100.00;100256.13;5066050;28;20017;-75
2022/11/21 09:40:21;;;;;;;13.43;5.25;;;;;;;5.45;100.00;100254.47;5053949;28;20031;-75
2022/11/21 09:43:13;;;;;;;10.27;5.15;;;;;;;5.48;100.00;100249.41;5034792;28;20275;-75
2022/11/21 09:45:49;;;;;;;13.57;5.57;;;;;;;5.50;100.00;100248.63;5054118;28;20040;-75
2022/11/21 09:48:21;;;;;;;13.85;5.68;;;;;;;5.51;100.00;100237.47;5046982;28;20124;-75
2022/11/21 09:50:52;;;;;;;13.68;5.72;;;;;;;5.56;100.00;100250.53;5047293;28;20048;-75
2022/11/21 09:53:24;;;;;;;12.57;5.35;;;;;;;5.60;100.00;100247.22;5028160;28;20019;-75
2022/11/21 09:56:11;;;;;;;11.63;5.75;;;;;;;5.64;100.00;100240.47;5049911;28;20041;-75
2022/11/21 09:58:41;;;;;;;12.70;5.28;;;;;;;5.66;100.00;100239.72;5054330;28;20286;-74
2022/11/21 10:01:14;;;;;;;13.27;4.97;;;;;;;5.68;100.00;100234.59;5052926;28;20061;-74
2022/11/21 10:03:46;;;;;;;12.88;5.18;;;;;;;5.69;100.00;100229.47;5060030;28;20021;-73
2022/11/21 10:06:19;;;;;;;11.35;5.35;;;;;;;5.73;100.00;100214.94;5047248;28;20021;-73
2022/11/21 10:09:08;;;;;;;11.68;5.40;;;;;;;5.80;100.00;100218.59;5052888;28;20026;-74
2022/11/21 10:14:42;;;;;;;12.20;5.25;;;;;;;5.92;100.00;100224.16;5053939;28;20020;-74
2022/11/21 10:17:30;;;;;;;14.77;5.15;;;;;;;5.92;100.00;100225.06;5058129;28;20274;-74
2022/11/21 10:20:18;;;;;;;13.45;5.05;;;;;;;5.96;100.00;100210.50;5045434;28;20284;-74
2022/11/21 10:22:55;;;;;;;12.52;5.15;;;;;;;5.99;100.00;100199.41;5059086;28;20025;-74
2022/11/21 10:25:28;;;;;;;15.07;5.47;;;;;;;6.01;100.00;100196.06;5050474;28;20029;-74
2022/11/21 10:28:15;;;;;;;14.82;6.80;;;;;;;6.06;100.00;100193.59;5050442;28;20417;-73
2022/11/21 10:30:44;;;;;;;14.10;6.35;;;;;;;6.09;100.00;100193.69;5056858;28;20022;-74
2022/11/21 10:33:32;;;;;;;30.08;18.35;;;;;;;6.12;100.00;100185.16;5050906;28;20028;-74
2022/11/21 10:36:21;;;;;;;15.27;6.83;;;;;;;6.13;100.00;100179.16;5052568;28;20127;-75
2022/11/21 10:38:49;;;;;;;23.80;13.32;;;;;;;6.15;100.00;100177.50;5049713;28;20290;-75
2022/11/21 10:41:21;;;;;;;18.48;9.75;;;;;;;6.15;100.00;100178.38;5052605;28;20017;-74
2022/11/21 10:46:58;;;;;;;12.30;4.70;;;;;;;6.21;100.00;100156.97;5056357;28;20182;-74
2022/11/21 10:49:31;;;;;;;17.98;6.82;;;;;;;6.24;100.00;100165.72;5031513;28;20021;-74
2022/11/21 10:52:06;;;;;;;13.60;6.07;;;;;;;6.30;100.00;100161.56;5051694;28;20496;-74
2022/11/21 10:54:31;;;;;;;24.38;10.60;;;;;;;6.34;100.00;100160.81;5054172;28;20012;-74
2022/11/21 10:57:15;;;;;;;105.10;42.15;;;;;;;6.39;100.00;100162.72;5034176;28;20112;-72
2022/11/21 11:00:12;;;;;;;44.03;18.40;;;;;;;6.43;100.00;100151.63;5040079;28;20221;-72
2022/11/21 11:02:54;;;;;;;18.98;8.77;;;;;;;6.50;100.00;100144.88;5059595;28;20028;-73
2022/11/21 11:05:22;;;;;;;17.48;8.43;;;;;;;6.54;100.00;100132.94;5050928;28;20438;-73
2022/11/21 11:08:04;;;;;;;22.67;9.32;;;;;;;6.60;100.00;100135.69;5050893;28;20033;-72
2022/11/21 11:10:35;;;;;;;14.25;6.90;;;;;;;6.66;99.92;100135.84;5058737;28;20016;-73
2022/11/21 11:16:14;;;;;;;14.65;5.38;;;;;;;6.83;99.65;100127.69;5049253;28;20088;-72
2022/11/21 11:19:00;;;;;;;14.02;5.43;;;;;;;6.90;98.98;100124.44;5046180;28;20060;-72
2022/11/21 11:21:43;;;;;;;16.73;6.43;;;;;;;6.99;98.74;100116.88;5057335;28;20024;-72
2022/11/21 11:24:08;;;;;;;16.17;7.07;;;;;;;7.05;98.21;100113.59;5063257;28;20040;-72
2022/11/21 11:26:48;;;;;;;11.52;5.00;;;;;;;7.12;96.34;100105.13;5059859;28;20020;-74
2022/11/21 11:29:22;;;;;;;12.50;4.60;;;;;;;7.17;95.46;100107.84;5038506;28;20020;-74
2022/11/21 11:32:20;;;;;;;11.40;5.30;;;;;;;7.23;96.27;100103.69;5064060;28;20020;-74
2022/11/21 11:34:59;;;;;;;15.95;5.70;;;;;;;7.27;92.82;100097.75;5009203;28;20067;-74
2022/11/21 11:37:34;;;;;;;15.73;6.57;;;;;;;7.32;93.30;100087.50;5063905;28;20171;-74